Home   Weather   China   Taiyuan   Past weeks
Flag for China

Past Weather in Taiyuan, Shanxi, China — October 2021

Currently: 30 °F. Haze. (Weather station: Taiyuan Airport, China). See more current weather

October 2021 Weather in Taiyuan — Graph

°F

High & Low Weather Summary for October 2021

 TemperatureHumidityPressure
High82 °F (Oct 1, 3:30 pm)100% (Oct 21, 3:30 am)30.66 "Hg (Oct 21, 3:30 am)
Low28 °F (Oct 17, 6:30 am)15% (Oct 22, 3:00 pm)29.74 "Hg (Oct 2, 3:00 pm)
Average51 °F65%30.24 "Hg
* Reported Oct 1 12:00 am — Oct 31 11:30 pm, Taiyuan. Weather by CustomWeather, © 2021

Note: Actual official high and low records may vary slightly from our data, if they occured in-between our weather recording intervals... More about our weather records

Taiyuan Weather History for October 1, 2021

Scroll right to see more
 ConditionsComfort  
Time TempWeatherWind HumidityBarometerVisibility
12:00 am
Fri, Oct 1
61 °FClear.1 mph83%29.89 "Hg4 mi
12:30 am59 °FClear.3 mph82%29.89 "Hg4 mi
1:00 am59 °FClear.3 mph82%29.89 "Hg4 mi
1:30 am57 °FClear.3 mph88%29.89 "Hg4 mi
2:00 am55 °FClear.1 mph94%29.89 "Hg4 mi
2:30 am57 °FClear.1 mph88%29.89 "Hg4 mi
3:00 am55 °FClear.3 mph88%29.89 "Hg4 mi
3:30 am55 °FClear.1 mph88%29.89 "Hg4 mi
4:00 am55 °FFog.1 mph88%29.89 "Hg3 mi
4:30 am54 °FFog.1 mph94%29.89 "Hg2 mi
5:00 am54 °FFog.1 mph88%29.89 "Hg2 mi
5:30 am54 °FFog.3 mph88%29.92 "Hg2 mi
6:00 am52 °FFog.1 mph88%29.92 "Hg2 mi
6:30 am52 °FFog.1 mph94%29.92 "Hg2 mi
7:00 am54 °FFog.3 mph88%29.95 "Hg2 mi
7:30 am55 °FFog.3 mph94%29.95 "Hg2 mi
8:00 am57 °FFog.3 mph88%29.95 "Hg2 mi
8:30 am61 °FFog.3 mph83%29.95 "Hg2 mi
9:00 am64 °FHaze.1 mph73%29.95 "Hg2 mi
9:30 am64 °FHaze.1 mph68%29.95 "Hg3 mi
10:00 am68 °FHaze.1 mph64%29.95 "Hg3 mi
10:30 am70 °FHaze.1 mph53%29.95 "Hg3 mi
11:00 am72 °FClear.1 mph50%29.95 "Hg4 mi
11:30 am73 °FClear.1 mph36%29.92 "Hg5 mi
12:00 pm77 °FClear.3 mph32%29.92 "Hg6 mi
12:30 pm77 °FPassing clouds.3 mph30%29.89 "HgN/A
1:00 pm77 °FSunny.6 mph30%29.86 "Hg10 mi
1:30 pm79 °FPassing clouds.6 mph28%29.86 "HgN/A
2:00 pm79 °FPassing clouds.6 mph28%29.83 "HgN/A
2:30 pm79 °FPassing clouds.6 mph26%29.83 "HgN/A
3:00 pm81 °FPassing clouds.3 mph23%29.83 "HgN/A
3:30 pm82 °FPassing clouds.6 mph23%29.80 "HgN/A
4:00 pm82 °FPassing clouds.6 mph25%29.80 "HgN/A
4:30 pm81 °FPassing clouds.6 mph24%29.80 "HgN/A
5:00 pm81 °FSunny.3 mph24%29.80 "Hg10 mi
5:30 pm79 °FSunny.1 mph32%29.80 "Hg10 mi
6:00 pm75 °FSunny.1 mph41%29.80 "Hg10 mi
6:30 pm68 °FClear.1 mph56%29.80 "Hg10 mi
7:00 pm72 °FClear.1 mph47%29.83 "Hg10 mi
7:30 pm70 °FPassing clouds.6 mph46%29.83 "HgN/A
8:00 pm66 °FClear.8 mph60%29.86 "Hg10 mi
8:30 pm66 °FClear.10 mph64%29.86 "Hg4 mi
9:00 pm64 °FClear.8 mph68%29.89 "Hg4 mi
9:30 pm63 °FHaze.8 mph73%29.89 "Hg3 mi
10:00 pm63 °FHaze.8 mph73%29.89 "Hg3 mi
10:30 pm63 °FHaze.8 mph73%29.89 "Hg3 mi
11:00 pm63 °FClear.6 mph73%29.89 "Hg4 mi
11:30 pm61 °FClear.3 mph77%29.89 "Hg4 mi
Weather by CustomWeather, © 2021

See weather overview